createdAt,value
2022-11-01T00:02:08.047Z,30.10
2022-11-01T00:04:35.662Z,30.88
2022-11-01T00:07:03.672Z,29.88
2022-11-01T00:09:31.275Z,31.40
2022-11-01T00:11:59.064Z,31.50
2022-11-01T00:14:26.888Z,30.60
2022-11-01T00:16:54.523Z,31.35
2022-11-01T00:19:22.253Z,30.30
2022-11-01T00:21:49.624Z,31.48
2022-11-01T00:24:17.117Z,32.17
2022-11-01T00:26:44.324Z,30.00
2022-11-01T00:29:13.041Z,28.50
2022-11-01T00:31:40.473Z,31.15
2022-11-01T00:34:08.700Z,29.20
2022-11-01T00:36:36.494Z,30.23
2022-11-01T00:39:05.107Z,34.75
2022-11-01T00:41:32.613Z,30.50
2022-11-01T00:44:00.451Z,34.30
2022-11-01T00:46:27.944Z,31.63
2022-11-01T00:48:55.556Z,31.40
2022-11-01T00:51:22.873Z,32.75
2022-11-01T00:53:50.786Z,32.45
2022-11-01T00:56:18.386Z,32.63
2022-11-01T00:58:46.074Z,35.15
2022-11-01T01:01:13.567Z,36.60
2022-11-01T01:03:41.285Z,34.90
2022-11-01T01:06:08.654Z,31.85
2022-11-01T01:08:36.367Z,38.88
2022-11-01T01:11:03.644Z,37.00
2022-11-01T01:13:31.563Z,34.95
2022-11-01T01:15:58.830Z,39.42
2022-11-01T01:18:27.509Z,39.55
2022-11-01T01:21:07.170Z,33.88
2022-11-01T01:23:34.876Z,35.40
2022-11-01T01:26:08.926Z,38.28
2022-11-01T01:28:41.793Z,31.70
2022-11-01T01:31:12.940Z,33.17
2022-11-01T01:33:40.805Z,35.95
2022-11-01T01:36:08.373Z,32.78
2022-11-01T01:38:35.906Z,33.85
2022-11-01T01:41:22.104Z,32.65
2022-11-01T01:43:49.650Z,34.42
2022-11-01T01:46:16.786Z,31.65
2022-11-01T01:48:47.004Z,32.60
2022-11-01T01:51:17.828Z,33.90
2022-11-01T01:53:49.192Z,36.33
2022-11-01T01:56:32.099Z,34.95
2022-11-01T01:59:08.425Z,32.70
2022-11-01T02:01:38.058Z,32.50
2022-11-01T02:04:20.112Z,29.77
2022-11-01T02:06:48.402Z,28.38
2022-11-01T02:09:16.529Z,25.65
2022-11-01T02:11:43.840Z,26.25
2022-11-01T02:14:11.489Z,25.40
2022-11-01T02:16:47.803Z,26.83
2022-11-01T02:19:53.164Z,24.92
2022-11-01T02:22:55.611Z,24.90
2022-11-01T02:25:45.293Z,25.27
2022-11-01T02:28:15.405Z,26.42
2022-11-01T02:31:11.698Z,26.30
2022-11-01T02:33:44.034Z,26.75
2022-11-01T02:36:17.330Z,26.38
2022-11-01T02:41:25.551Z,24.60
2022-11-01T02:44:00.444Z,26.45
2022-11-01T02:46:49.645Z,26.25
2022-11-01T02:49:18.545Z,26.08
2022-11-01T02:51:46.610Z,27.55
2022-11-01T02:54:21.252Z,27.33
2022-11-01T02:56:50.486Z,26.45
2022-11-01T02:59:25.868Z,26.75
2022-11-01T03:02:10.684Z,30.00
2022-11-01T03:04:38.044Z,31.90
2022-11-01T03:07:08.340Z,33.85
2022-11-01T03:09:36.344Z,37.92
2022-11-01T03:12:09.655Z,37.28
2022-11-01T03:14:42.771Z,37.40
2022-11-01T03:17:25.962Z,35.08
2022-11-01T03:20:05.385Z,38.03
2022-11-01T03:22:44.189Z,32.67
2022-11-01T03:25:44.412Z,31.05
2022-11-01T03:28:26.933Z,29.02
2022-11-01T03:30:58.127Z,28.40
2022-11-01T03:33:26.908Z,27.45
2022-11-01T03:35:56.444Z,28.08
2022-11-01T03:38:27.728Z,26.90
2022-11-01T03:40:59.096Z,26.65
2022-11-01T03:43:27.951Z,26.65
2022-11-01T03:45:55.266Z,28.02
2022-11-01T03:48:22.932Z,29.60
2022-11-01T03:50:52.250Z,28.90
2022-11-01T03:53:20.449Z,29.33
2022-11-01T03:55:48.031Z,29.70
2022-11-01T03:58:15.854Z,29.55
2022-11-01T04:00:44.969Z,27.88
2022-11-01T04:03:13.030Z,27.75
2022-11-01T04:05:41.529Z,28.85
2022-11-01T04:08:10.935Z,28.48
2022-11-01T04:10:38.542Z,29.67
2022-11-01T04:13:06.303Z,27.48
2022-11-01T04:15:52.614Z,25.90
2022-11-01T04:21:14.599Z,27.08
2022-11-01T04:23:42.974Z,29.65
2022-11-01T04:26:18.410Z,28.60
2022-11-01T04:28:57.265Z,26.15
2022-11-01T04:31:29.032Z,28.42
2022-11-01T04:33:57.451Z,27.45
2022-11-01T04:36:25.229Z,29.02
2022-11-01T04:38:57.579Z,28.52
2022-11-01T04:41:26.642Z,27.77
2022-11-01T04:43:56.132Z,27.00
2022-11-01T04:46:23.614Z,27.50
2022-11-01T04:48:51.295Z,29.92
2022-11-01T04:51:18.605Z,29.65
2022-11-01T04:53:45.993Z,30.42
2022-11-01T04:56:14.072Z,30.48
2022-11-01T04:58:45.940Z,29.25
2022-11-01T05:01:15.261Z,30.73
2022-11-01T05:03:43.455Z,31.83
2022-11-01T05:06:10.900Z,30.15
2022-11-01T05:08:38.467Z,31.67
2022-11-01T05:11:06.065Z,31.17
2022-11-01T05:13:33.730Z,31.17
2022-11-01T05:16:21.140Z,30.08
2022-11-01T05:18:49.345Z,32.83
2022-11-01T05:21:16.722Z,30.60
2022-11-01T05:23:44.470Z,32.47
2022-11-01T05:26:11.784Z,30.58
2022-11-01T05:28:39.471Z,31.73
2022-11-01T05:31:06.756Z,31.25
2022-11-01T05:33:34.240Z,29.63
2022-11-01T05:36:02.104Z,32.25
2022-11-01T05:38:29.616Z,34.10
2022-11-01T05:40:56.711Z,30.20
2022-11-01T05:43:24.056Z,30.02
2022-11-01T05:45:51.454Z,29.17
2022-11-01T05:48:18.855Z,26.98
2022-11-01T05:50:47.125Z,26.40
2022-11-01T05:53:14.814Z,26.88
2022-11-01T05:55:42.175Z,28.10
2022-11-01T05:58:09.835Z,28.42
2022-11-01T06:00:37.047Z,30.15
2022-11-01T06:03:07.950Z,29.52
2022-11-01T06:05:38.149Z,28.85
2022-11-01T06:08:06.358Z,29.58
2022-11-01T06:10:33.840Z,30.08
2022-11-01T06:13:01.700Z,30.65
2022-11-01T06:15:29.297Z,27.23
2022-11-01T06:18:00.177Z,30.35
2022-11-01T06:20:29.695Z,27.10
2022-11-01T06:22:58.533Z,26.48
2022-11-01T06:25:26.922Z,26.65
2022-11-01T06:27:54.716Z,28.30
2022-11-01T06:30:22.292Z,25.45
2022-11-01T06:32:49.939Z,26.25
2022-11-01T06:35:17.282Z,27.27
2022-11-01T06:37:44.975Z,28.35
2022-11-01T06:40:13.082Z,29.98
2022-11-01T06:42:45.461Z,26.98
2022-11-01T06:45:14.756Z,26.67
2022-11-01T06:47:47.088Z,27.05
2022-11-01T06:50:14.326Z,25.50
2022-11-01T06:52:42.033Z,29.00
2022-11-01T06:55:09.270Z,27.83
2022-11-01T06:57:36.893Z,26.70
2022-11-01T07:00:05.104Z,28.13
2022-11-01T07:02:32.842Z,26.85
2022-11-01T07:05:00.414Z,29.38
2022-11-01T07:07:28.082Z,28.30
2022-11-01T07:09:55.485Z,28.40
2022-11-01T07:12:22.918Z,30.75
2022-11-01T07:14:50.139Z,28.70
2022-11-01T07:17:17.671Z,29.13
2022-11-01T07:19:45.733Z,27.35
2022-11-01T07:22:14.355Z,27.48
2022-11-01T07:24:41.538Z,27.02
2022-11-01T07:27:09.074Z,31.35
2022-11-01T07:29:36.479Z,26.75
2022-11-01T07:32:04.170Z,29.80
2022-11-01T07:34:31.542Z,28.48
2022-11-01T07:36:59.380Z,26.48
2022-11-01T07:39:26.776Z,25.95
2022-11-01T07:41:54.706Z,27.90
2022-11-01T07:44:22.126Z,26.73
2022-11-01T07:46:49.702Z,28.55
2022-11-01T07:49:16.973Z,30.23
2022-11-01T07:51:44.437Z,38.28
2022-11-01T07:54:11.859Z,36.40
2022-11-01T07:56:39.376Z,32.45
2022-11-01T07:59:06.657Z,31.20
2022-11-01T08:01:34.204Z,28.75
2022-11-01T08:04:01.679Z,29.27
2022-11-01T08:06:29.274Z,29.13
2022-11-01T08:08:56.601Z,27.77
2022-11-01T08:11:24.132Z,28.98
2022-11-01T08:13:51.657Z,29.52
2022-11-01T08:16:19.310Z,30.42
2022-11-01T08:18:46.823Z,28.50
2022-11-01T08:21:18.969Z,29.15
2022-11-01T08:23:47.568Z,29.15
2022-11-01T08:26:15.978Z,27.98
2022-11-01T08:28:43.595Z,27.63
2022-11-01T08:31:11.737Z,27.58
2022-11-01T08:33:39.666Z,64.30
2022-11-01T08:36:07.366Z,32.95
2022-11-01T08:38:35.505Z,28.23
2022-11-01T08:41:03.106Z,27.48
2022-11-01T08:43:30.385Z,29.63
2022-11-01T08:45:59.191Z,31.05
2022-11-01T08:48:26.874Z,33.17
2022-11-01T08:50:54.543Z,29.65
2022-11-01T08:53:21.953Z,28.95
2022-11-01T08:55:54.983Z,30.48
2022-11-01T08:58:22.413Z,30.80
2022-11-01T09:00:50.151Z,31.13
2022-11-01T09:03:18.062Z,33.63
2022-11-01T09:05:45.657Z,31.10
2022-11-01T09:08:13.714Z,31.50
2022-11-01T09:10:41.747Z,32.67
2022-11-01T09:13:09.303Z,33.35
2022-11-01T09:15:37.077Z,32.13
2022-11-01T09:18:06.287Z,33.67
2022-11-01T09:20:34.099Z,32.70
2022-11-01T09:23:01.722Z,33.38
2022-11-01T09:25:29.425Z,33.30
2022-11-01T09:27:58.098Z,33.42
2022-11-01T09:30:26.331Z,32.25
2022-11-01T09:32:53.944Z,32.08
2022-11-01T09:35:21.553Z,33.60
2022-11-01T09:37:49.076Z,35.10
2022-11-01T09:40:16.675Z,36.17
2022-11-01T09:42:44.899Z,37.90
2022-11-01T09:45:21.794Z,36.03
2022-11-01T09:47:54.251Z,37.08
2022-11-01T09:50:31.081Z,37.78
2022-11-01T09:52:58.529Z,38.33
2022-11-01T09:56:10.381Z,40.05
2022-11-01T09:59:02.520Z,40.38
2022-11-01T10:01:43.000Z,39.97
2022-11-01T10:04:41.391Z,40.97
2022-11-01T10:07:19.312Z,37.05
2022-11-01T10:09:52.205Z,38.22
2022-11-01T10:15:30.590Z,37.60
2022-11-01T10:18:21.340Z,38.70
2022-11-01T10:20:48.661Z,36.55
2022-11-01T10:23:17.226Z,36.92
2022-11-01T10:25:51.338Z,36.95
2022-11-01T10:28:24.026Z,37.67
2022-11-01T10:30:55.066Z,37.97
2022-11-01T10:33:47.602Z,36.13
2022-11-01T10:36:21.911Z,35.08
2022-11-01T10:39:52.684Z,36.90
2022-11-01T10:41:55.103Z,36.45
2022-11-01T10:44:46.606Z,38.25
2022-11-01T10:47:19.501Z,39.67
2022-11-01T10:50:14.817Z,38.78
2022-11-01T10:53:11.618Z,39.80
2022-11-01T10:55:43.079Z,39.55
2022-11-01T10:58:31.203Z,40.53
2022-11-01T11:01:00.049Z,41.40
2022-11-01T11:03:31.155Z,42.08
2022-11-01T11:06:01.277Z,41.38
2022-11-01T11:08:28.686Z,42.33
2022-11-01T11:10:59.660Z,41.92
2022-11-01T11:13:27.042Z,43.70
2022-11-01T11:16:04.433Z,45.53
2022-11-01T11:18:38.638Z,45.42
2022-11-01T11:21:08.971Z,45.30
2022-11-01T11:23:42.028Z,43.20
2022-11-01T11:26:13.473Z,44.03
2022-11-01T11:28:44.492Z,43.92
2022-11-01T11:31:18.579Z,43.28
2022-11-01T11:34:05.341Z,40.05
2022-11-01T11:36:35.543Z,41.22
2022-11-01T11:39:04.100Z,44.30
2022-11-01T11:41:37.235Z,43.90
2022-11-01T11:44:04.834Z,44.42
2022-11-01T11:46:32.495Z,43.30
2022-11-01T11:49:04.497Z,43.63
2022-11-01T11:51:35.746Z,42.97
2022-11-01T11:54:11.647Z,41.70
2022-11-01T11:56:39.286Z,41.47
2022-11-01T11:59:16.785Z,40.10
2022-11-01T12:01:44.535Z,39.45
2022-11-01T12:04:16.595Z,43.83
2022-11-01T12:06:45.505Z,41.95
2022-11-01T12:09:45.259Z,40.30
2022-11-01T12:12:32.461Z,36.97
2022-11-01T12:15:00.546Z,35.63
2022-11-01T12:17:31.913Z,39.20
2022-11-01T12:20:10.647Z,37.47
2022-11-01T12:22:40.647Z,39.25
2022-11-01T12:25:18.119Z,38.47
2022-11-01T12:27:55.715Z,40.75
2022-11-01T12:30:25.203Z,38.83
2022-11-01T12:32:53.763Z,39.50
2022-11-01T12:35:23.384Z,40.85
2022-11-01T12:38:28.376Z,38.45
2022-11-01T12:41:06.384Z,35.45
2022-11-01T12:44:09.730Z,36.17
2022-11-01T12:46:56.514Z,33.38
2022-11-01T12:49:27.390Z,36.28
2022-11-01T12:51:57.763Z,35.40
2022-11-01T12:54:29.298Z,37.05
2022-11-01T12:56:57.039Z,40.10
2022-11-01T12:59:33.054Z,39.83
2022-11-01T13:02:13.720Z,40.90
2022-11-01T13:05:11.919Z,42.65
2022-11-01T13:07:54.850Z,44.15
2022-11-01T13:10:36.834Z,46.40
2022-11-01T13:13:26.032Z,46.67
2022-11-01T13:16:20.203Z,45.92
2022-11-01T13:18:59.822Z,46.42
2022-11-01T13:21:38.674Z,46.88
2022-11-01T13:24:07.646Z,47.53
2022-11-01T13:27:12.221Z,46.90
2022-11-01T13:30:10.170Z,44.83
2022-11-01T13:32:47.408Z,47.75
2022-11-01T13:35:20.854Z,45.63
2022-11-01T13:37:53.501Z,44.92
2022-11-01T13:40:32.747Z,45.57
2022-11-01T13:43:11.659Z,47.97
2022-11-01T13:45:45.254Z,45.35
2022-11-01T13:48:42.047Z,47.42
2022-11-01T13:51:09.497Z,45.72
2022-11-01T13:53:39.416Z,42.45
2022-11-01T13:56:13.395Z,43.72
2022-11-01T13:58:41.156Z,44.05
2022-11-01T14:01:35.779Z,41.33
2022-11-01T14:04:08.939Z,41.10
2022-11-01T14:06:37.526Z,41.80
2022-11-01T14:09:28.187Z,42.53
2022-11-01T14:12:09.889Z,38.67
2022-11-01T14:14:40.280Z,38.55
2022-11-01T14:17:27.175Z,38.00
2022-11-01T14:19:58.847Z,37.10
2022-11-01T14:22:31.099Z,38.67
2022-11-01T14:25:00.848Z,38.85
2022-11-01T14:27:35.876Z,36.83
2022-11-01T14:30:24.210Z,37.63
2022-11-01T14:32:57.217Z,37.28
2022-11-01T14:35:38.015Z,38.10
2022-11-01T14:38:12.520Z,37.28
2022-11-01T14:40:43.002Z,34.88
2022-11-01T14:43:19.811Z,34.35
2022-11-01T14:45:51.234Z,36.63
2022-11-01T14:48:27.788Z,34.85
2022-11-01T14:51:00.911Z,35.47
2022-11-01T14:53:37.621Z,35.58
2022-11-01T14:56:16.251Z,34.25
2022-11-01T14:58:44.254Z,38.42
2022-11-01T15:01:23.577Z,35.75
2022-11-01T15:03:59.056Z,37.25
2022-11-01T15:06:28.695Z,37.97
2022-11-01T15:09:03.822Z,38.75
2022-11-01T15:11:33.976Z,36.72
2022-11-01T15:14:03.407Z,38.88
2022-11-01T15:16:31.250Z,37.55
2022-11-01T15:19:08.072Z,35.30
2022-11-01T15:21:46.561Z,32.67
2022-11-01T15:24:19.529Z,34.95
2022-11-01T15:26:47.468Z,36.15
2022-11-01T15:29:17.972Z,36.38
2022-11-01T15:31:50.621Z,33.97
2022-11-01T15:34:40.465Z,34.80
2022-11-01T15:37:29.996Z,34.92
2022-11-01T15:42:32.272Z,35.60
2022-11-01T15:45:19.210Z,35.60
2022-11-01T15:48:10.381Z,35.13
2022-11-01T15:50:41.364Z,37.22
2022-11-01T15:53:10.785Z,37.75
2022-11-01T15:55:42.043Z,36.08
2022-11-01T15:58:18.524Z,38.13
2022-11-01T16:00:46.945Z,36.45
2022-11-01T16:03:17.857Z,37.50
2022-11-01T16:05:49.065Z,36.53
2022-11-01T16:08:33.275Z,36.70
2022-11-01T16:11:00.944Z,35.42
2022-11-01T16:13:29.869Z,35.17
2022-11-01T16:16:15.610Z,37.13
2022-11-01T16:18:45.265Z,36.85
2022-11-01T16:21:24.972Z,36.63
2022-11-01T16:24:15.785Z,37.53
2022-11-01T16:27:03.950Z,36.95
2022-11-01T16:30:03.056Z,36.30
2022-11-01T16:32:32.948Z,37.50
2022-11-01T16:35:25.497Z,37.03
2022-11-01T16:37:52.901Z,37.95
2022-11-01T16:40:25.978Z,38.47
2022-11-01T16:42:59.196Z,40.60
2022-11-01T16:45:27.046Z,39.63
2022-11-01T16:47:58.077Z,36.85
2022-11-01T16:50:26.289Z,37.78
2022-11-01T16:52:53.727Z,35.97
2022-11-01T16:55:24.079Z,45.35
2022-11-01T16:57:54.584Z,39.45
2022-11-01T17:00:22.233Z,39.25
2022-11-01T17:02:49.801Z,37.97
2022-11-01T17:05:20.975Z,37.53
2022-11-01T17:07:49.325Z,33.97
2022-11-01T17:10:22.343Z,32.60
2022-11-01T17:12:49.750Z,33.92
2022-11-01T17:15:18.193Z,34.80
2022-11-01T17:17:47.603Z,36.60
2022-11-01T17:20:26.628Z,36.65
2022-11-01T17:22:55.747Z,37.53
2022-11-01T17:25:28.898Z,41.33
2022-11-01T17:27:56.967Z,41.05
2022-11-01T17:30:24.613Z,41.33
2022-11-01T17:32:51.997Z,41.95
2022-11-01T17:35:21.601Z,40.40
2022-11-01T17:37:51.584Z,42.90
2022-11-01T17:40:21.278Z,43.53
2022-11-01T17:42:48.983Z,44.78
2022-11-01T17:45:36.971Z,44.83
2022-11-01T17:48:04.882Z,43.30
2022-11-01T17:50:33.143Z,41.25
2022-11-01T17:53:00.675Z,39.58
2022-11-01T17:55:28.493Z,41.00
2022-11-01T17:57:56.013Z,40.10
2022-11-01T18:00:23.504Z,39.97
2022-11-01T18:02:51.340Z,45.38
2022-11-01T18:05:18.877Z,44.22
2022-11-01T18:07:48.925Z,40.78
2022-11-01T18:10:22.091Z,42.40
2022-11-01T18:13:07.710Z,41.03
2022-11-01T18:16:06.593Z,41.42
2022-11-01T18:18:56.856Z,42.13
2022-11-01T18:21:42.363Z,39.50
2022-11-01T18:24:18.502Z,42.30
2022-11-01T18:26:50.000Z,40.38
2022-11-01T18:29:21.727Z,40.95
2022-11-01T18:31:58.938Z,41.20
2022-11-01T18:34:38.079Z,38.63
2022-11-01T18:37:20.795Z,41.05
2022-11-01T18:39:48.298Z,40.25
2022-11-01T18:42:16.677Z,38.13
2022-11-01T18:44:44.746Z,40.13
2022-11-01T18:47:17.576Z,38.25
2022-11-01T18:49:45.731Z,38.03
2022-11-01T18:52:16.960Z,38.50
2022-11-01T18:54:55.180Z,34.90
2022-11-01T18:57:24.887Z,38.78
2022-11-01T18:59:53.429Z,37.25
2022-11-01T19:02:27.741Z,39.30
2022-11-01T19:05:11.108Z,38.95
2022-11-01T19:08:04.612Z,37.60
2022-11-01T19:10:28.463Z,40.17
2022-11-01T19:12:56.437Z,37.22
2022-11-01T19:15:29.030Z,41.25
2022-11-01T19:18:13.079Z,38.75
2022-11-01T19:20:45.359Z,38.05
2022-11-01T19:23:16.568Z,40.75
2022-11-01T19:25:43.923Z,38.30
2022-11-01T19:28:38.460Z,40.05
2022-11-01T19:31:31.900Z,40.40
2022-11-01T19:34:03.194Z,40.38
2022-11-01T19:39:26.429Z,44.45
2022-11-01T19:41:56.129Z,39.95
2022-11-01T19:44:24.871Z,43.67
2022-11-01T19:47:00.127Z,42.78
2022-11-01T19:49:30.258Z,44.45
2022-11-01T19:52:20.283Z,44.70
2022-11-01T19:54:50.247Z,42.22
2022-11-01T19:57:39.697Z,44.45
2022-11-01T20:00:19.350Z,44.95
2022-11-01T20:02:51.946Z,43.15
2022-11-01T20:07:51.198Z,42.15
2022-11-01T20:10:19.039Z,44.05
2022-11-01T20:12:46.296Z,44.22
2022-11-01T20:15:13.840Z,45.70
2022-11-01T20:17:41.136Z,45.75
2022-11-01T20:20:09.337Z,47.72
2022-11-01T20:22:37.816Z,46.25
2022-11-01T20:25:06.554Z,44.22
2022-11-01T20:27:34.130Z,45.00
2022-11-01T20:30:01.841Z,44.63
2022-11-01T20:32:29.140Z,46.03
2022-11-01T20:34:57.917Z,45.08
2022-11-01T20:37:28.829Z,47.45
2022-11-01T20:39:57.211Z,47.15
2022-11-01T20:42:24.947Z,49.33
2022-11-01T20:44:52.662Z,48.92
2022-11-01T20:47:20.104Z,45.58
2022-11-01T20:49:48.220Z,48.03
2022-11-01T20:55:03.701Z,44.20
2022-11-01T20:57:31.149Z,46.25
2022-11-01T20:59:58.980Z,48.03
2022-11-01T21:02:27.477Z,47.28
2022-11-01T21:05:02.356Z,47.13
2022-11-01T21:07:31.615Z,46.40
2022-11-01T21:10:00.017Z,44.65
2022-11-01T21:12:47.759Z,46.28
2022-11-01T21:15:37.429Z,47.25
2022-11-01T21:18:07.765Z,46.17
2022-11-01T21:20:45.588Z,49.58
2022-11-01T21:23:15.908Z,48.47
2022-11-01T21:25:46.329Z,49.10
2022-11-01T21:28:25.796Z,49.17
2022-11-01T21:30:53.635Z,48.28
2022-11-01T21:33:32.433Z,48.65
2022-11-01T21:36:00.186Z,49.25
2022-11-01T21:38:34.499Z,49.90
2022-11-01T21:41:10.240Z,49.42
2022-11-01T21:43:37.658Z,50.63
2022-11-01T21:46:05.498Z,49.63
2022-11-01T21:48:33.537Z,52.33
2022-11-01T21:51:01.346Z,51.17
2022-11-01T21:53:28.775Z,51.13
2022-11-01T21:55:56.499Z,52.60
2022-11-01T21:58:24.073Z,53.92
2022-11-01T22:00:51.517Z,52.53
2022-11-01T22:03:18.964Z,56.28
2022-11-01T22:05:46.589Z,56.97
2022-11-01T22:08:14.063Z,57.85
2022-11-01T22:10:41.752Z,60.28
2022-11-01T22:13:09.424Z,56.67
2022-11-01T22:15:37.428Z,56.60
2022-11-01T22:18:04.731Z,56.53
2022-11-01T22:20:32.319Z,55.70
2022-11-01T22:22:59.792Z,54.13
2022-11-01T22:25:27.371Z,53.85
2022-11-01T22:27:54.834Z,51.13
2022-11-01T22:30:22.381Z,53.00
2022-11-01T22:32:49.657Z,54.55
2022-11-01T22:35:17.294Z,50.63
2022-11-01T22:37:44.681Z,52.67
2022-11-01T22:40:13.477Z,51.90
2022-11-01T22:42:41.487Z,47.47
2022-11-01T22:45:14.136Z,44.53
2022-11-01T22:47:41.732Z,41.20
2022-11-01T22:50:13.413Z,41.33
2022-11-01T22:52:43.542Z,40.80
2022-11-01T22:55:11.347Z,40.75
2022-11-01T22:57:46.175Z,41.05
2022-11-01T23:00:32.165Z,38.47
2022-11-01T23:03:03.418Z,40.45
2022-11-01T23:05:31.360Z,39.17
2022-11-01T23:08:00.450Z,39.05
2022-11-01T23:10:31.813Z,41.95
2022-11-01T23:13:30.124Z,40.38
2022-11-01T23:16:02.717Z,38.17
2022-11-01T23:18:32.566Z,40.72
2022-11-01T23:21:02.662Z,41.83
2022-11-01T23:23:29.974Z,41.45
2022-11-01T23:26:00.060Z,43.08
2022-11-01T23:28:27.371Z,42.30
2022-11-01T23:30:55.247Z,44.10
2022-11-01T23:33:23.654Z,45.40
2022-11-01T23:35:54.739Z,43.63
2022-11-01T23:38:27.095Z,42.88
2022-11-01T23:40:54.703Z,42.67
2022-11-01T23:43:39.220Z,45.25
2022-11-01T23:46:07.909Z,43.50
2022-11-01T23:48:41.596Z,43.95
2022-11-01T23:51:15.859Z,41.70
2022-11-01T23:53:43.764Z,41.17
2022-11-01T23:56:12.624Z,42.63
2022-11-01T23:58:40.141Z,43.80
